createdAt,value
2022-08-19T00:09:40.669Z,21.13
2022-08-19T00:19:42.243Z,22.00
2022-08-19T00:29:43.773Z,18.77
2022-08-19T00:39:46.108Z,19.60
2022-08-19T00:49:57.643Z,19.97
2022-08-19T01:00:03.093Z,18.13
2022-08-19T01:10:07.436Z,18.70
2022-08-19T01:20:14.150Z,19.75
2022-08-19T01:30:21.795Z,26.17
2022-08-19T01:40:27.357Z,25.87
2022-08-19T01:50:30.045Z,23.10
2022-08-19T02:00:33.116Z,30.70
2022-08-19T02:10:34.751Z,14.15
2022-08-19T02:20:36.774Z,13.53
2022-08-19T02:30:39.381Z,17.37
2022-08-19T02:40:40.939Z,16.10
2022-08-19T02:50:51.966Z,14.83
2022-08-19T03:00:57.407Z,16.02
2022-08-19T03:10:58.974Z,12.83
2022-08-19T03:21:00.565Z,10.80
2022-08-19T03:31:05.829Z,7.80
2022-08-19T03:41:44.429Z,8.67
2022-08-19T03:51:49.103Z,9.82
2022-08-19T04:01:50.615Z,10.40
2022-08-19T04:11:55.170Z,10.70
2022-08-19T04:21:56.852Z,10.17
2022-08-19T04:31:59.186Z,10.60
2022-08-19T04:42:00.719Z,10.35
2022-08-19T04:52:02.375Z,8.37
2022-08-19T05:02:04.969Z,11.53
2022-08-19T05:12:06.738Z,7.90
2022-08-19T05:22:08.278Z,5.90
2022-08-19T05:32:09.812Z,5.70
2022-08-19T05:42:13.096Z,7.53
2022-08-19T05:52:16.383Z,9.70
2022-08-19T06:02:20.451Z,5.77
2022-08-19T06:12:22.205Z,6.83
2022-08-19T06:22:23.788Z,4.97
2022-08-19T06:32:25.367Z,5.23
2022-08-19T06:42:26.875Z,5.80
2022-08-19T06:52:28.758Z,4.67
2022-08-19T07:02:30.288Z,5.03
2022-08-19T07:12:32.969Z,3.63
2022-08-19T07:22:35.194Z,3.63
2022-08-19T07:32:37.658Z,2.83
2022-08-19T07:42:39.352Z,2.87
2022-08-19T07:52:41.240Z,3.20
2022-08-19T08:02:42.975Z,3.13
2022-08-19T08:12:44.542Z,3.67
2022-08-19T08:23:06.106Z,4.00
2022-08-19T08:33:07.718Z,2.97
2022-08-19T08:43:14.603Z,3.20
2022-08-19T08:53:28.808Z,2.75
2022-08-19T09:03:31.813Z,3.20
2022-08-19T09:13:39.408Z,3.90
2022-08-19T09:23:41.192Z,5.10
2022-08-19T09:33:42.842Z,4.27
2022-08-19T09:43:51.027Z,4.05
2022-08-19T09:53:55.231Z,6.70
2022-08-19T10:03:59.352Z,3.43
2022-08-19T10:14:02.861Z,3.80
2022-08-19T10:24:06.134Z,3.90
2022-08-19T10:34:08.559Z,3.45
2022-08-19T10:44:14.667Z,3.97
2022-08-19T10:54:16.689Z,4.07
2022-08-19T11:04:20.027Z,4.80
2022-08-19T11:14:22.103Z,3.73
2022-08-19T11:24:26.019Z,5.00
2022-08-19T11:34:28.268Z,3.87
2022-08-19T11:44:30.037Z,6.43
2022-08-19T11:54:31.562Z,6.07
2022-08-19T12:04:34.229Z,4.10
2022-08-19T12:14:36.059Z,2.90
2022-08-19T12:24:37.602Z,5.13
2022-08-19T12:34:39.771Z,4.23
2022-08-19T12:44:43.210Z,4.80
2022-08-19T12:54:46.112Z,4.83
2022-08-19T13:04:47.684Z,3.03
2022-08-19T13:14:49.220Z,3.40
2022-08-19T13:24:51.385Z,4.00
2022-08-19T13:34:52.904Z,3.07
2022-08-19T13:44:54.991Z,4.20
2022-08-19T13:54:56.599Z,5.07
2022-08-19T14:04:59.532Z,3.23
2022-08-19T14:15:01.966Z,3.10
2022-08-19T14:25:06.014Z,3.43
2022-08-19T14:35:07.893Z,3.17
2022-08-19T14:45:11.110Z,3.08
2022-08-19T14:55:12.698Z,3.40
2022-08-19T15:05:14.268Z,3.53
2022-08-19T15:15:16.862Z,4.40
2022-08-19T15:25:19.376Z,3.90
2022-08-19T15:35:22.761Z,4.25
2022-08-19T15:45:24.331Z,5.07
2022-08-19T15:55:32.815Z,4.77
2022-08-19T16:05:35.405Z,4.03
2022-08-19T16:15:36.954Z,3.70
2022-08-19T16:25:38.464Z,3.90
2022-08-19T16:35:40.124Z,2.80
2022-08-19T16:45:43.370Z,3.80
2022-08-19T16:55:46.634Z,3.27
2022-08-19T17:05:50.345Z,3.60
2022-08-19T17:15:52.639Z,4.97
2022-08-19T17:25:54.281Z,5.27
2022-08-19T17:35:55.825Z,5.30
2022-08-19T17:45:57.409Z,6.73
2022-08-19T17:55:58.963Z,4.23
2022-08-19T18:06:00.503Z,4.88
2022-08-19T18:16:03.626Z,5.83
2022-08-19T18:26:05.760Z,8.93
2022-08-19T18:36:08.400Z,4.80
2022-08-19T18:46:10.017Z,8.00
2022-08-19T18:56:13.877Z,7.80
2022-08-19T19:06:18.688Z,6.43
2022-08-19T19:16:24.237Z,7.97
2022-08-19T19:26:26.362Z,7.47
2022-08-19T19:36:27.880Z,6.23
2022-08-19T19:46:32.162Z,6.45
2022-08-19T19:56:34.450Z,5.53
2022-08-19T20:06:36.014Z,4.47
2022-08-19T20:16:38.721Z,5.03
2022-08-19T20:26:41.323Z,3.90
2022-08-19T20:36:45.740Z,7.07
2022-08-19T20:46:55.299Z,3.60
2022-08-19T20:56:57.269Z,5.83
2022-08-19T21:06:59.101Z,4.93
2022-08-19T21:17:00.672Z,5.20
2022-08-19T21:27:02.260Z,4.97
2022-08-19T21:37:04.323Z,4.80
2022-08-19T21:47:06.174Z,4.83
2022-08-19T21:57:11.118Z,5.27
2022-08-19T22:07:14.016Z,5.77
2022-08-19T22:17:16.847Z,5.38
2022-08-19T22:27:18.722Z,4.47
2022-08-19T22:37:20.216Z,3.87
2022-08-19T22:47:21.785Z,3.97
2022-08-19T22:57:28.716Z,5.97
2022-08-19T23:07:30.315Z,6.45
2022-08-19T23:17:31.892Z,6.77
2022-08-19T23:27:33.497Z,4.50
2022-08-19T23:37:35.000Z,4.07
2022-08-19T23:47:36.518Z,7.57
2022-08-19T23:57:43.056Z,4.13
